createdAt,value
2023-04-02T00:00:19.875Z,0.12
2023-04-02T00:03:44.496Z,0.10
2023-04-02T00:06:45.149Z,0.09
2023-04-02T00:09:38.019Z,0.08
2023-04-02T00:12:26.319Z,0.08
2023-04-02T00:15:15.242Z,0.09
2023-04-02T00:18:06.339Z,0.11
2023-04-02T00:21:14.579Z,0.13
2023-04-02T00:24:14.494Z,0.17
2023-04-02T00:27:02.847Z,0.21
2023-04-02T00:29:55.200Z,0.24
2023-04-02T00:32:46.144Z,0.28
2023-04-02T00:35:39.653Z,0.30
2023-04-02T00:38:34.401Z,0.33
2023-04-02T00:41:31.082Z,0.35
2023-04-02T00:44:24.168Z,0.37
2023-04-02T00:47:34.878Z,0.39
2023-04-02T00:50:41.216Z,0.41
2023-04-02T00:53:32.050Z,0.42
2023-04-02T00:56:31.624Z,0.43
2023-04-02T00:59:32.018Z,0.43
2023-04-02T01:02:33.032Z,0.42
2023-04-02T01:05:23.942Z,0.41
2023-04-02T01:08:52.821Z,0.41
2023-04-02T01:12:01.326Z,0.43
2023-04-02T01:15:51.912Z,0.46
2023-04-02T01:19:13.925Z,0.48
2023-04-02T01:22:02.212Z,0.51
2023-04-02T01:24:50.560Z,0.53
2023-04-02T01:28:10.444Z,0.53
2023-04-02T01:31:02.431Z,0.53
2023-04-02T01:33:50.935Z,0.54
2023-04-02T01:37:11.604Z,0.55
2023-04-02T01:40:13.224Z,0.58
2023-04-02T01:43:17.222Z,0.60
2023-04-02T01:46:26.101Z,0.61
2023-04-02T01:49:18.947Z,0.62
2023-04-02T01:52:08.072Z,0.62
2023-04-02T01:54:57.820Z,0.64
2023-04-02T01:57:53.815Z,0.66
2023-04-02T02:00:55.885Z,0.66
2023-04-02T02:03:45.351Z,0.68
2023-04-02T02:06:33.927Z,0.69
2023-04-02T02:09:27.066Z,0.72
2023-04-02T02:12:16.506Z,0.74
2023-04-02T02:15:13.566Z,0.71
2023-04-02T02:18:11.514Z,0.72
2023-04-02T02:21:05.125Z,0.73
2023-04-02T02:23:56.306Z,0.76
2023-04-02T02:26:47.733Z,0.78
2023-04-02T02:29:41.177Z,0.79
2023-04-02T02:32:33.348Z,0.80
2023-04-02T02:35:29.857Z,0.79
2023-04-02T02:38:38.943Z,0.81
2023-04-02T02:41:45.781Z,0.82
2023-04-02T02:44:42.079Z,0.85
2023-04-02T02:47:35.118Z,0.87
2023-04-02T02:50:32.001Z,0.87
2023-04-02T02:53:25.303Z,0.86
2023-04-02T02:56:16.634Z,0.86
2023-04-02T02:59:11.825Z,0.88
2023-04-02T03:02:09.394Z,0.90
2023-04-02T03:05:18.120Z,0.83
2023-04-02T03:08:30.537Z,0.92
2023-04-02T03:11:44.431Z,0.93
2023-04-02T03:14:49.201Z,0.95
2023-04-02T03:17:49.440Z,0.94
2023-04-02T03:20:58.557Z,0.94
2023-04-02T03:23:55.107Z,0.95
2023-04-02T03:27:11.092Z,0.93
2023-04-02T03:30:47.948Z,0.93
2023-04-02T03:33:48.068Z,0.93
2023-04-02T03:36:51.362Z,0.94
2023-04-02T03:39:55.854Z,0.93
2023-04-02T03:43:19.515Z,0.95
2023-04-02T03:46:28.828Z,0.96
2023-04-02T03:49:34.448Z,0.97
2023-04-02T03:52:29.681Z,0.99
2023-04-02T03:55:26.301Z,0.99
2023-04-02T03:58:27.435Z,0.98
2023-04-02T04:02:08.029Z,0.99
2023-04-02T04:04:58.632Z,0.98
2023-04-02T04:07:50.486Z,0.98
2023-04-02T04:10:43.459Z,0.98
2023-04-02T04:13:47.422Z,0.96
2023-04-02T04:17:23.962Z,0.96
2023-04-02T04:20:28.731Z,0.99
2023-04-02T04:23:32.744Z,1.00
2023-04-02T04:26:35.116Z,1.00
2023-04-02T04:29:58.671Z,1.01
2023-04-02T04:33:23.167Z,1.00
2023-04-02T04:36:31.689Z,1.02
2023-04-02T04:39:34.918Z,1.02
2023-04-02T04:42:38.172Z,1.00
2023-04-02T04:45:40.357Z,1.00
2023-04-02T04:48:42.866Z,1.00
2023-04-02T04:51:46.996Z,1.03
2023-04-02T04:54:39.441Z,1.09
2023-04-02T04:57:37.113Z,1.09
2023-04-02T05:00:51.353Z,1.12
2023-04-02T05:04:06.522Z,1.09
2023-04-02T05:07:07.608Z,1.09
2023-04-02T05:10:31.043Z,1.10
2023-04-02T05:13:34.846Z,1.10
2023-04-02T05:16:54.599Z,1.12
2023-04-02T05:19:53.636Z,1.14
2023-04-02T05:23:58.064Z,1.22
2023-04-02T05:26:50.950Z,1.27
2023-04-02T05:29:45.669Z,1.29
2023-04-02T05:32:47.185Z,1.35
2023-04-02T05:35:41.071Z,1.34
2023-04-02T05:38:33.282Z,1.29
2023-04-02T05:41:39.257Z,1.28
2023-04-02T05:44:36.832Z,1.30
2023-04-02T05:47:32.172Z,1.33
2023-04-02T05:50:48.523Z,1.35
2023-04-02T05:53:56.350Z,1.36
2023-04-02T05:56:49.846Z,1.37
2023-04-02T05:59:47.559Z,1.37
2023-04-02T06:03:09.186Z,1.40
2023-04-02T06:06:04.646Z,1.39
2023-04-02T06:09:12.500Z,1.44
2023-04-02T06:12:38.012Z,1.51
2023-04-02T06:15:26.990Z,1.56
2023-04-02T06:18:25.145Z,1.59
2023-04-02T06:21:17.659Z,1.64
2023-04-02T06:24:19.734Z,1.66
2023-04-02T06:27:12.552Z,1.69
2023-04-02T06:30:06.891Z,1.73
2023-04-02T06:32:54.337Z,1.71
2023-04-02T06:36:23.706Z,1.77
2023-04-02T06:39:22.600Z,1.79
2023-04-02T06:42:21.810Z,1.81
2023-04-02T06:45:42.903Z,1.86
2023-04-02T06:49:06.956Z,1.91
2023-04-02T06:51:58.464Z,1.87
2023-04-02T06:54:46.827Z,1.89
2023-04-02T06:57:35.435Z,1.96
2023-04-02T07:00:45.222Z,2.07
2023-04-02T07:03:53.498Z,2.25
2023-04-02T07:07:06.634Z,2.34
2023-04-02T07:09:57.311Z,2.40
2023-04-02T07:12:44.183Z,2.41
2023-04-02T07:15:32.257Z,2.46
2023-04-02T07:18:31.475Z,2.60
2023-04-02T07:21:21.710Z,2.80
2023-04-02T07:24:36.644Z,2.93
2023-04-02T07:27:25.773Z,3.10
2023-04-02T07:30:13.109Z,3.16
2023-04-02T07:33:05.309Z,3.30
2023-04-02T07:35:54.640Z,3.44
2023-04-02T07:38:42.018Z,3.43
2023-04-02T07:41:29.750Z,3.48
2023-04-02T07:44:16.765Z,3.53
2023-04-02T07:47:04.469Z,3.61
2023-04-02T07:49:54.074Z,3.59
2023-04-02T07:52:42.057Z,3.62
2023-04-02T07:55:31.890Z,3.70
2023-04-02T07:58:18.962Z,3.66
2023-04-02T08:01:25.587Z,3.67
2023-04-02T08:04:30.909Z,3.75
2023-04-02T08:07:18.572Z,3.82
2023-04-02T08:10:14.365Z,3.90
2023-04-02T08:13:01.262Z,3.83
2023-04-02T08:15:48.376Z,3.86
2023-04-02T08:18:38.453Z,4.08
2023-04-02T08:21:25.742Z,4.35
2023-04-02T08:24:23.659Z,4.51
2023-04-02T08:27:14.672Z,4.66
2023-04-02T08:30:01.792Z,5.03
2023-04-02T08:32:48.923Z,5.57
2023-04-02T08:35:36.613Z,6.89
2023-04-02T08:38:25.365Z,7.91
2023-04-02T08:41:28.135Z,8.78
2023-04-02T08:44:36.243Z,9.60
2023-04-02T08:47:29.422Z,10.13
2023-04-02T08:50:36.065Z,11.14
2023-04-02T08:53:30.550Z,12.16
2023-04-02T08:56:51.880Z,13.65
2023-04-02T08:59:42.957Z,13.62
2023-04-02T09:02:57.089Z,14.49
2023-04-02T09:05:46.695Z,14.88
2023-04-02T09:08:35.091Z,14.51
2023-04-02T09:11:41.308Z,14.71
2023-04-02T09:15:17.922Z,14.73
2023-04-02T09:18:17.571Z,14.87
2023-04-02T09:21:41.355Z,14.41
2023-04-02T09:24:28.444Z,14.05
2023-04-02T09:27:22.817Z,13.94
2023-04-02T09:30:12.724Z,13.95
2023-04-02T09:33:09.269Z,13.52
2023-04-02T09:35:57.306Z,13.22
2023-04-02T09:39:00.863Z,13.73
2023-04-02T09:41:59.075Z,13.82
2023-04-02T09:44:52.468Z,14.36
2023-04-02T09:47:42.290Z,15.25
2023-04-02T09:50:32.934Z,15.53
2023-04-02T09:53:32.750Z,16.12
2023-04-02T09:56:23.648Z,16.22
2023-04-02T09:59:13.376Z,16.91
2023-04-02T10:02:03.149Z,17.21
2023-04-02T10:04:51.159Z,16.52
2023-04-02T10:07:48.798Z,17.09
2023-04-02T10:10:45.783Z,17.02
2023-04-02T10:13:55.956Z,16.95
2023-04-02T10:17:24.588Z,17.60
2023-04-02T10:20:25.902Z,17.69
2023-04-02T10:23:17.934Z,17.82
2023-04-02T10:26:38.026Z,18.00
2023-04-02T10:29:51.100Z,18.30
2023-04-02T10:32:56.452Z,18.64
2023-04-02T10:36:20.988Z,18.94
2023-04-02T10:39:26.843Z,18.49
2023-04-02T10:42:44.419Z,18.57
2023-04-02T10:45:48.641Z,18.03
2023-04-02T10:48:57.365Z,17.45
2023-04-02T10:52:13.226Z,17.38
2023-04-02T10:55:34.687Z,16.98
2023-04-02T10:58:28.886Z,16.67
2023-04-02T11:01:23.373Z,16.57
2023-04-02T11:04:45.712Z,16.94
2023-04-02T11:07:52.747Z,15.97
2023-04-02T11:10:46.831Z,15.76
2023-04-02T11:13:48.803Z,15.57
2023-04-02T11:16:39.358Z,14.40
2023-04-02T11:19:32.584Z,14.25
2023-04-02T11:22:24.390Z,14.23
2023-04-02T11:25:22.674Z,14.24
2023-04-02T11:28:31.220Z,14.60
2023-04-02T11:31:21.414Z,13.96
2023-04-02T11:34:40.385Z,12.63
2023-04-02T11:37:46.691Z,12.47
2023-04-02T11:40:57.535Z,13.06
2023-04-02T11:43:49.036Z,12.06
